| time (UTC) | temp F | wind direction | speed MPH | gust MPH | rain 1hr in | rain 24hr in | rain mn in | humidity % | barometer mb |
| 20260504205536 | 72 | 250 | 5.0 | 15.0 | 0.00 | 0.00 | 0.00 | 31 | 1011.1 |
| 20260504205037 | 72 | 220 | 7.0 | 14.0 | 0.00 | 0.00 | 0.00 | 31 | 1010.9 |
| 20260504204547 | 72 | 223 | 3.0 | 14.0 | 0.00 | 0.00 | 0.00 | 33 | 1011.0 |
| 20260504204040 | 72 | 234 | 5.0 | 13.0 | 0.00 | 0.00 | 0.00 | 31 | 1011.1 |
| 20260504203536 | 72 | 222 | 5.0 | 11.0 | 0.00 | 0.00 | 0.00 | 31 | 1010.9 |
| 20260504203049 | 72 | 269 | 4.0 | 11.0 | 0.00 | 0.00 | 0.00 | 30 | 1011.0 |
| 20260504202537 | 73 | 248 | 5.0 | 11.0 | 0.00 | 0.00 | 0.00 | 30 | 1011.0 |
| 20260504202036 | 73 | 229 | 4.0 | 10.0 | 0.00 | 0.00 | 0.00 | 33 | 1011.0 |
| 20260504201547 | 72 | 247 | 3.0 | 12.0 | 0.00 | 0.00 | 0.00 | 32 | 1011.0 |
| 20260504201040 | 72 | 233 | 4.0 | 12.0 | 0.00 | 0.00 | 0.00 | 33 | 1011.1 |
| 20260504200536 | 72 | 254 | 5.0 | 11.0 | 0.00 | 0.00 | 0.00 | 31 | 1011.1 |
| 20260504200045 | 72 | 275 | 4.0 | 12.0 | 0.00 | 0.00 | 0.00 | 32 | 1011.0 |
| 20260504195536 | 72 | 219 | 3.0 | 14.0 | 0.00 | 0.00 | 0.00 | 33 | 1011.1 |
| 20260504195036 | 72 | 269 | 5.0 | 14.0 | 0.00 | 0.00 | 0.00 | 32 | 1011.2 |
| 20260504194552 | 72 | 194 | 5.0 | 13.0 | 0.00 | 0.00 | 0.00 | 33 | 1011.3 |
| 20260504194038 | 72 | 302 | 2.0 | 15.0 | 0.00 | 0.00 | 0.00 | 35 | 1011.2 |
| 20260504193536 | 71 | 200 | 5.0 | 15.0 | 0.00 | 0.00 | 0.00 | 33 | 1011.3 |
| 20260504193047 | 72 | 166 | 5.0 | 15.0 | 0.00 | 0.00 | 0.00 | 32 | 1011.4 |
| 20260504192536 | 71 | 263 | 3.0 | 12.0 | 0.00 | 0.00 | 0.00 | 35 | 1011.4 |
| 20260504192037 | 71 | 248 | 3.0 | 12.0 | 0.00 | 0.00 | 0.00 | 32 | 1011.4 |
| 20260504191610 | 71 | 227 | 5.0 | 13.0 | 0.00 | 0.00 | 0.00 | 33 | 1011.6 |
| 20260504191036 | 71 | 219 | 5.0 | 14.0 | 0.00 | 0.00 | 0.00 | 33 | 1011.6 |
| 20260504190536 | 70 | 294 | 5.0 | 16.0 | 0.00 | 0.00 | 0.00 | 34 | 1011.7 |
| 20260504190049 | 71 | 324 | 5.0 | 16.0 | 0.00 | 0.00 | 0.00 | 32 | 1011.8 |
| 20260504185537 | 70 | 248 | 5.0 | 16.0 | 0.00 | 0.00 | 0.00 | 34 | 1012.0 |
| 20260504185036 | 70 | 319 | 6.0 | 15.0 | 0.00 | 0.00 | 0.00 | 32 | 1012.0 |
| 20260504184556 | 70 | 302 | 5.0 | 13.0 | 0.00 | 0.00 | 0.00 | 34 | 1012.1 |
| 20260504184037 | 70 | 154 | 5.0 | 12.0 | 0.00 | 0.00 | 0.00 | 33 | 1012.2 |
| 20260504183537 | 70 | 266 | 4.0 | 15.0 | 0.00 | 0.00 | 0.00 | 33 | 1012.2 |
| 20260504183046 | 70 | 232 | 4.0 | 15.0 | 0.00 | 0.00 | 0.00 | 34 | 1012.3 |
| 20260504182536 | 70 | 223 | 5.0 | 15.0 | 0.00 | 0.00 | 0.00 | 33 | 1012.3 |
| 20260504182036 | 70 | 262 | 6.0 | 12.0 | 0.00 | 0.00 | 0.00 | 34 | 1012.5 |
| 20260504181546 | 70 | 221 | 4.0 | 13.0 | 0.00 | 0.00 | 0.00 | 35 | 1012.4 |
| 20260504181037 | 70 | 273 | 2.0 | 14.0 | 0.00 | 0.00 | 0.00 | 35 | 1012.6 |
| 20260504180536 | 70 | 260 | 5.0 | 14.0 | 0.00 | 0.00 | 0.00 | 33 | 1012.8 |
| 20260504180051 | 69 | 261 | 5.0 | 15.0 | 0.00 | 0.00 | 0.00 | 34 | 1012.7 |
| 20260504175538 | 69 | 322 | 4.0 | 17.0 | 0.00 | 0.00 | 0.00 | 35 | 1012.8 |
| 20260504175037 | 69 | 146 | 6.0 | 17.0 | 0.00 | 0.00 | 0.00 | 33 | 1012.9 |
| 20260504174548 | 69 | 192 | 3.0 | 12.0 | 0.00 | 0.00 | 0.00 | 33 | 1012.9 |
| 20260504174037 | 69 | 225 | 6.0 | 12.0 | 0.00 | 0.00 | 0.00 | 35 | 1013.0 |
| 20260504173536 | 69 | 266 | 2.0 | 16.0 | 0.00 | 0.00 | 0.00 | 35 | 1013.0 |
| 20260504173047 | 69 | 210 | 4.0 | 16.0 | 0.00 | 0.00 | 0.00 | 34 | 1013.1 |
| 20260504172536 | 68 | 223 | 5.0 | 17.0 | 0.00 | 0.00 | 0.00 | 35 | 1013.3 |
| 20260504172039 | 68 | 265 | 5.0 | 17.0 | 0.00 | 0.00 | 0.00 | 36 | 1013.3 |
| 20260504171546 | 68 | 271 | 4.0 | 17.0 | 0.00 | 0.00 | 0.00 | 36 | 1013.3 |
| 20260504171037 | 68 | 297 | 4.0 | 11.0 | 0.00 | 0.00 | 0.00 | 35 | 1013.4 |
| 20260504170537 | 68 | 291 | 5.0 | 16.0 | 0.00 | 0.00 | 0.00 | 36 | 1013.5 |
| 20260504151035 | 64 | 288 | 4.0 | 13.0 | 0.00 | 0.00 | 0.00 | 45 | 1014.6 |
| 20260504150535 | 64 | 229 | 4.0 | 12.0 | 0.00 | 0.00 | 0.00 | 46 | 1014.6 |
| 20260504141038 | 62 | 225 | 5.0 | 16.0 | 0.00 | 0.00 | 0.00 | 48 | 1014.9 |
| 20260504140535 | 61 | 215 | 2.0 | 16.0 | 0.00 | 0.00 | 0.00 | 51 | 1014.7 |
| 20260504130537 | 57 | 236 | 4.0 | 11.0 | 0.00 | 0.00 | 0.00 | 58 | 1015.5 |
| 20260504110535 | 44 | 247 | 1.0 | 6.0 | 0.00 | 0.00 | 0.00 | 77 | 1016.2 |
| 20260504100536 | 42 | 0 | 0.0 | 1.0 | 0.00 | 0.00 | 0.00 | 76 | 1016.0 |
| 20260504081538 | 44 | 0 | 0.0 | 3.0 | 0.00 | 0.00 | 0.00 | 69 | 1015.9 |
| 20260504081035 | 44 | 256 | 0.0 | 3.0 | 0.00 | 0.00 | 0.00 | 70 | 1015.9 |
| 20260504080534 | 44 | 263 | 0.0 | 3.0 | 0.00 | 0.00 | 0.00 | 70 | 1015.8 |
| 20260504050535 | 42 | 271 | 0.0 | 1.0 | 0.00 | 0.00 | 0.00 | 69 | 1015.3 |
| 20260504045535 | 42 | 0 | 0.0 | 2.0 | 0.00 | 0.00 | 0.00 | 71 | 1015.4 |
| 20260504045035 | 42 | 0 | 0.0 | 2.0 | 0.00 | 0.00 | 0.00 | 70 | 1015.3 |
| 20260504044549 | 42 | 0 | 0.0 | 3.0 | 0.00 | 0.00 | 0.00 | 71 | 1015.2 |
| 20260504044036 | 41 | 0 | 0.0 | 3.0 | 0.00 | 0.00 | 0.00 | 72 | 1015.1 |
| 20260504043536 | 41 | 0 | 0.0 | 0.0 | 0.00 | 0.00 | 0.00 | 73 | 1015.2 |
| 20260504043043 | 41 | 0 | 0.0 | 1.0 | 0.00 | 0.00 | 0.00 | 73 | 1015.1 |
| 20260504042535 | 41 | 0 | 0.0 | 1.0 | 0.00 | 0.00 | 0.00 | 73 | 1015.0 |
| 20260504042036 | 41 | 0 | 0.0 | 1.0 | 0.00 | 0.00 | 0.00 | 73 | 1015.1 |
| 20260504041545 | 41 | 0 | 0.0 | 1.0 | 0.00 | 0.00 | 0.00 | 74 | 1014.9 |
| 20260504041035 | 41 | 0 | 0.0 | 1.0 | 0.00 | 0.00 | 0.00 | 74 | 1014.9 |
| 20260504040537 | 41 | 0 | 0.0 | 1.0 | 0.00 | 0.00 | 0.00 | 74 | 1014.8 |
| 20260504040048 | 41 | 0 | 0.0 | 1.0 | 0.00 | 0.00 | 0.00 | 75 | 1014.8 |
| 20260504035536 | 41 | 0 | 0.0 | 0.0 | 0.00 | 0.00 | 0.00 | 74 | 1014.8 |
| 20260504035036 | 41 | 0 | 0.0 | 0.0 | 0.00 | 0.00 | 0.00 | 74 | 1014.7 |
| 20260504034547 | 41 | 0 | 0.0 | 0.0 | 0.00 | 0.00 | 0.00 | 73 | 1014.6 |
| 20260504034039 | 41 | 0 | 0.0 | 0.0 | 0.00 | 0.00 | 0.00 | 73 | 1014.7 |
| 20260504033535 | 41 | 0 | 0.0 | 0.0 | 0.00 | 0.00 | 0.00 | 73 | 1014.5 |
| 20260504033055 | 41 | 0 | 0.0 | 0.0 | 0.00 | 0.00 | 0.00 | 73 | 1014.6 |
| 20260504032537 | 42 | 0 | 0.0 | 0.0 | 0.00 | 0.00 | 0.00 | 72 | 1014.5 |
| 20260504032035 | 42 | 0 | 0.0 | 1.0 | 0.00 | 0.00 | 0.00 | 72 | 1014.5 |
| 20260504031559 | 42 | 0 | 0.0 | 1.0 | 0.00 | 0.00 | 0.00 | 71 | 1014.6 |
| 20260504031035 | 42 | 0 | 0.0 | 1.0 | 0.00 | 0.00 | 0.00 | 71 | 1014.6 |
| 20260504030535 | 42 | 0 | 0.0 | 1.0 | 0.00 | 0.00 | 0.00 | 71 | 1014.6 |
| 20260504025537 | 42 | 0 | 0.0 | 1.0 | 0.00 | 0.00 | 0.00 | 72 | 1014.5 |
| 20260504025037 | 42 | 0 | 0.0 | 1.0 | 0.00 | 0.00 | 0.00 | 70 | 1014.6 |
| 20260504024543 | 43 | 0 | 0.0 | 1.0 | 0.00 | 0.00 | 0.00 | 71 | 1014.5 |
| 20260504024037 | 43 | 0 | 0.0 | 1.0 | 0.00 | 0.00 | 0.00 | 70 | 1014.4 |
| 20260504023537 | 43 | 0 | 0.0 | 1.0 | 0.00 | 0.00 | 0.00 | 70 | 1014.4 |
| 20260504023050 | 43 | 0 | 0.0 | 0.0 | 0.00 | 0.00 | 0.00 | 69 | 1014.4 |
| 20260504022538 | 43 | 0 | 0.0 | 0.0 | 0.00 | 0.00 | 0.00 | 68 | 1014.5 |
| 20260504022037 | 43 | 0 | 0.0 | 0.0 | 0.00 | 0.00 | 0.00 | 67 | 1014.4 |
| 20260504021545 | 44 | 0 | 0.0 | 1.0 | 0.00 | 0.00 | 0.00 | 66 | 1014.4 |
| 20260504021038 | 44 | 0 | 0.0 | 1.0 | 0.00 | 0.00 | 0.00 | 65 | 1014.5 |
| 20260504020537 | 44 | 0 | 0.0 | 1.0 | 0.00 | 0.00 | 0.00 | 64 | 1014.4 |
| 20260504020046 | 44 | 0 | 0.0 | 0.0 | 0.00 | 0.00 | 0.00 | 64 | 1014.4 |
| 20260504015537 | 44 | 0 | 0.0 | 0.0 | 0.00 | 0.00 | 0.00 | 63 | 1014.4 |
| 20260504015039 | 44 | 0 | 0.0 | 1.0 | 0.00 | 0.00 | 0.00 | 63 | 1014.3 |
| 20260504014541 | 45 | 0 | 0.0 | 1.0 | 0.00 | 0.00 | 0.00 | 63 | 1014.3 |
| 20260504014037 | 45 | 0 | 0.0 | 1.0 | 0.00 | 0.00 | 0.00 | 62 | 1014.2 |
| 20260504013538 | 45 | 0 | 0.0 | 1.0 | 0.00 | 0.00 | 0.00 | 62 | 1014.1 |
| 20260504013049 | 45 | 0 | 0.0 | 1.0 | 0.00 | 0.00 | 0.00 | 61 | 1014.1 |
| 20260504012537 | 46 | 0 | 0.0 | 0.0 | 0.00 | 0.00 | 0.00 | 61 | 1014.2 |
| 20260504012036 | 46 | 0 | 0.0 | 0.0 | 0.00 | 0.00 | 0.00 | 60 | 1014.1 |
| 20260504011539 | 46 | 0 | 0.0 | 0.0 | 0.00 | 0.00 | 0.00 | 59 | 1013.9 |
| 20260504011039 | 47 | 0 | 0.0 | 0.0 | 0.00 | 0.00 | 0.00 | 57 | 1013.9 |
| 20260504010536 | 47 | 0 | 0.0 | 0.0 | 0.00 | 0.00 | 0.00 | 55 | 1013.8 |
| 20260504010047 | 48 | 0 | 0.0 | 1.0 | 0.00 | 0.00 | 0.00 | 52 | 1013.7 |
| 20260504005537 | 49 | 0 | 0.0 | 1.0 | 0.00 | 0.00 | 0.00 | 51 | 1013.6 |
| 20260504005041 | 49 | 0 | 0.0 | 1.0 | 0.00 | 0.00 | 0.00 | 48 | 1013.7 |
| 20260504004550 | 50 | 0 | 0.0 | 1.0 | 0.00 | 0.00 | 0.00 | 47 | 1013.5 |
| 20260504004036 | 50 | 0 | 0.0 | 1.0 | 0.00 | 0.00 | 0.00 | 46 | 1013.4 |
| 20260504003538 | 51 | 0 | 0.0 | 1.0 | 0.00 | 0.00 | 0.00 | 45 | 1013.5 |
| 20260504003046 | 51 | 0 | 0.0 | 1.0 | 0.00 | 0.00 | 0.00 | 44 | 1013.4 |
| 20260504002536 | 52 | 211 | 0.0 | 1.0 | 0.00 | 0.00 | 0.00 | 42 | 1013.3 |
| 20260504002035 | 52 | 0 | 0.0 | 2.0 | 0.00 | 0.00 | 0.00 | 41 | 1013.3 |
| 20260504001551 | 53 | 0 | 0.0 | 2.0 | 0.00 | 0.00 | 0.00 | 40 | 1013.2 |
| 20260504001036 | 54 | 0 | 0.0 | 2.0 | 0.00 | 0.00 | 0.00 | 40 | 1013.2 |
| 20260504000536 | 54 | 0 | 0.0 | 2.0 | 0.00 | 0.00 | 0.00 | 38 | 1013.2 |
| 20260504000118 | 54 | 249 | 0.0 | 2.0 | 0.00 | 0.00 | 0.00 | 37 | 1013.1 |
| 20260503235536 | 55 | 0 | 0.0 | 2.0 | 0.00 | 0.00 | 0.00 | 37 | 1013.1 |
| 20260503235037 | 55 | 278 | 0.0 | 2.0 | 0.00 | 0.00 | 0.00 | 37 | 1013.0 |
| 20260503234550 | 55 | 258 | 0.0 | 2.0 | 0.00 | 0.00 | 0.00 | 36 | 1013.0 |
| 20260503234036 | 56 | 0 | 0.0 | 2.0 | 0.00 | 0.00 | 0.00 | 35 | 1013.0 |
| 20260503233535 | 56 | 0 | 0.0 | 6.0 | 0.00 | 0.00 | 0.00 | 34 | 1012.8 |
| 20260503233046 | 57 | 281 | 0.0 | 6.0 | 0.00 | 0.00 | 0.00 | 33 | 1012.8 |
| 20260503232535 | 57 | 0 | 1.0 | 4.0 | 0.00 | 0.00 | 0.00 | 32 | 1012.8 |
| 20260503232035 | 58 | 307 | 1.0 | 5.0 | 0.00 | 0.00 | 0.00 | 32 | 1012.7 |
| 20260503231545 | 58 | 225 | 1.0 | 5.0 | 0.00 | 0.00 | 0.00 | 32 | 1012.8 |
| 20260503231036 | 59 | 0 | 0.0 | 4.0 | 0.00 | 0.00 | 0.00 | 32 | 1012.7 |
| 20260503230536 | 59 | 270 | 1.0 | 4.0 | 0.00 | 0.00 | 0.00 | 32 | 1012.7 |
| 20260503230044 | 59 | 0 | 0.0 | 3.0 | 0.00 | 0.00 | 0.00 | 32 | 1012.7 |
| 20260503225536 | 59 | 0 | 0.0 | 6.0 | 0.00 | 0.00 | 0.00 | 32 | 1012.7 |
| 20260503225037 | 58 | 286 | 2.0 | 6.0 | 0.00 | 0.00 | 0.00 | 31 | 1012.5 |
| 20260503224539 | 58 | 237 | 3.0 | 10.0 | 0.00 | 0.00 | 0.00 | 30 | 1012.5 |
| 20260503224036 | 58 | 303 | 3.0 | 10.0 | 0.00 | 0.00 | 0.00 | 31 | 1012.6 |
| 20260503223536 | 58 | 323 | 4.0 | 11.0 | 0.00 | 0.00 | 0.00 | 30 | 1012.5 |
| 20260503223041 | 59 | 234 | 4.0 | 11.0 | 0.00 | 0.00 | 0.00 | 31 | 1012.5 |
| 20260503222535 | 59 | 247 | 3.0 | 8.0 | 0.00 | 0.00 | 0.00 | 31 | 1012.4 |
| 20260503222035 | 59 | 326 | 3.0 | 13.0 | 0.00 | 0.00 | 0.00 | 30 | 1012.5 |
| 20260503221548 | 59 | 280 | 4.0 | 13.0 | 0.00 | 0.00 | 0.00 | 31 | 1012.4 |
| 20260503221037 | 59 | 329 | 3.0 | 13.0 | 0.00 | 0.00 | 0.00 | 31 | 1012.4 |
| 20260503220536 | 59 | 319 | 6.0 | 16.0 | 0.00 | 0.00 | 0.00 | 30 | 1012.4 |
| 20260503220050 | 59 | 315 | 4.0 | 16.0 | 0.00 | 0.00 | 0.00 | 30 | 1012.5 |
| 20260503215536 | 59 | 349 | 4.0 | 16.0 | 0.00 | 0.00 | 0.00 | 30 | 1012.5 |
| 20260503215038 | 59 | 327 | 6.0 | 16.0 | 0.00 | 0.00 | 0.00 | 30 | 1012.6 |
| 20260503214545 | 59 | 249 | 3.0 | 11.0 | 0.00 | 0.00 | 0.00 | 29 | 1012.6 |
| 20260503214036 | 59 | 252 | 3.0 | 11.0 | 0.00 | 0.00 | 0.00 | 30 | 1012.4 |
| 20260503213536 | 59 | 147 | 2.0 | 15.0 | 0.00 | 0.00 | 0.00 | 31 | 1012.4 |
| 20260503213047 | 58 | 290 | 7.0 | 15.0 | 0.00 | 0.00 | 0.00 | 30 | 1012.4 |
| 20260503212538 | 59 | 41 | 6.0 | 15.0 | 0.00 | 0.00 | 0.00 | 31 | 1012.4 |
| 20260503212035 | 58 | 312 | 5.0 | 15.0 | 0.00 | 0.00 | 0.00 | 32 | 1012.4 |
| 20260503211543 | 59 | 315 | 7.0 | 15.0 | 0.00 | 0.00 | 0.00 | 30 | 1012.5 |
| 20260503211035 | 59 | 334 | 4.0 | 16.0 | 0.00 | 0.00 | 0.00 | 32 | 1012.5 |
| 20260503210535 | 58 | 293 | 6.0 | 16.0 | 0.00 | 0.00 | 0.00 | 31 | 1012.5 |
| 20260503210042 | 59 | 310 | 6.0 | 19.0 | 0.00 | 0.00 | 0.00 | 31 | 1012.6 |